createdAt,value
2023-04-01T00:00:41.041Z,10.40
2023-04-01T00:03:44.311Z,10.35
2023-04-01T00:06:48.530Z,10.44
2023-04-01T00:09:51.820Z,10.37
2023-04-01T00:12:54.769Z,10.30
2023-04-01T00:15:59.976Z,10.24
2023-04-01T00:19:03.416Z,10.29
2023-04-01T00:22:07.270Z,10.14
2023-04-01T00:25:10.664Z,10.13
2023-04-01T00:28:13.843Z,10.18
2023-04-01T00:31:16.756Z,10.08
2023-04-01T00:34:19.622Z,10.09
2023-04-01T00:37:22.532Z,10.00
2023-04-01T00:40:30.007Z,10.03
2023-04-01T00:43:33.356Z,9.99
2023-04-01T00:46:36.750Z,9.97
2023-04-01T00:49:43.829Z,9.87
2023-04-01T00:52:47.535Z,9.85
2023-04-01T00:56:13.104Z,9.90
2023-04-01T00:59:25.943Z,9.86
2023-04-01T01:02:29.108Z,9.88
2023-04-01T01:05:49.437Z,9.84
2023-04-01T01:08:52.966Z,9.80
2023-04-01T01:12:00.972Z,9.89
2023-04-01T01:15:24.478Z,9.95
2023-04-01T01:18:48.418Z,9.95
2023-04-01T01:22:03.368Z,9.88
2023-04-01T01:25:28.187Z,9.87
2023-04-01T01:28:37.418Z,9.91
2023-04-01T01:32:17.746Z,9.83
2023-04-01T01:35:39.349Z,9.92
2023-04-01T01:38:52.269Z,9.88
2023-04-01T01:41:58.628Z,10.01
2023-04-01T01:45:03.784Z,10.02
2023-04-01T01:48:10.250Z,9.87
2023-04-01T01:51:13.200Z,9.80
2023-04-01T01:54:18.800Z,9.83
2023-04-01T01:57:26.734Z,9.82
2023-04-01T02:00:36.465Z,9.78
2023-04-01T02:03:40.884Z,9.78
2023-04-01T02:06:49.241Z,9.72
2023-04-01T02:09:52.965Z,9.71
2023-04-01T02:13:02.586Z,9.79
2023-04-01T02:16:13.509Z,9.75
2023-04-01T02:19:23.803Z,9.71
2023-04-01T02:22:32.595Z,9.78
2023-04-01T02:25:37.782Z,9.73
2023-04-01T02:28:43.616Z,9.74
2023-04-01T02:31:47.230Z,9.77
2023-04-01T02:34:50.860Z,9.71
2023-04-01T02:37:55.500Z,9.71
2023-04-01T02:41:01.997Z,9.73
2023-04-01T02:44:05.046Z,9.72
2023-04-01T02:47:07.828Z,9.63
2023-04-01T02:50:11.234Z,9.64
2023-04-01T02:53:14.175Z,9.61
2023-04-01T02:56:16.971Z,9.62
2023-04-01T02:59:20.098Z,9.61
2023-04-01T03:02:23.063Z,9.65
2023-04-01T03:05:26.231Z,9.57
2023-04-01T03:08:29.343Z,9.63
2023-04-01T03:11:32.174Z,9.59
2023-04-01T03:14:35.202Z,9.56
2023-04-01T03:17:39.535Z,9.60
2023-04-01T03:20:42.290Z,9.54
2023-04-01T03:23:45.490Z,9.58
2023-04-01T03:26:48.390Z,9.56
2023-04-01T03:29:51.804Z,9.51
2023-04-01T03:32:54.656Z,9.45
2023-04-01T03:35:57.470Z,9.50
2023-04-01T03:39:00.366Z,9.44
2023-04-01T03:42:11.679Z,9.45
2023-04-01T03:45:14.815Z,9.46
2023-04-01T03:48:18.208Z,9.47
2023-04-01T03:51:21.237Z,9.49
2023-04-01T03:54:24.561Z,9.47
2023-04-01T03:57:27.605Z,9.54
2023-04-01T04:00:34.501Z,9.56
2023-04-01T04:03:38.537Z,9.54
2023-04-01T04:06:41.611Z,9.45
2023-04-01T04:09:44.578Z,9.41
2023-04-01T04:12:47.721Z,9.39
2023-04-01T04:15:51.516Z,9.36
2023-04-01T04:18:54.960Z,9.38
2023-04-01T04:21:57.780Z,9.42
2023-04-01T04:25:00.884Z,9.43
2023-04-01T04:28:03.851Z,9.29
2023-04-01T04:31:07.521Z,9.23
2023-04-01T04:34:11.793Z,9.32
2023-04-01T04:37:14.749Z,9.34
2023-04-01T04:40:17.722Z,9.41
2023-04-01T04:43:21.032Z,9.44
2023-04-01T04:46:24.838Z,9.35
2023-04-01T04:49:33.998Z,9.32
2023-04-01T04:52:41.968Z,9.27
2023-04-01T04:55:50.052Z,9.29
2023-04-01T04:59:08.326Z,9.21
2023-04-01T05:02:34.568Z,9.23
2023-04-01T05:05:38.285Z,9.20
2023-04-01T05:08:42.304Z,9.20
2023-04-01T05:11:45.310Z,9.18
2023-04-01T05:14:48.154Z,9.28
2023-04-01T05:17:51.566Z,9.24
2023-04-01T05:20:55.736Z,9.26
2023-04-01T05:23:58.979Z,9.26
2023-04-01T05:27:02.718Z,9.28
2023-04-01T05:30:06.990Z,9.23
2023-04-01T05:33:18.880Z,9.34
2023-04-01T05:36:21.738Z,9.33
2023-04-01T05:39:24.768Z,9.30
2023-04-01T05:42:27.702Z,9.29
2023-04-01T05:45:31.319Z,9.41
2023-04-01T05:48:54.522Z,9.36
2023-04-01T05:51:58.514Z,9.40
2023-04-01T05:55:01.857Z,9.39
2023-04-01T05:58:05.045Z,9.36
2023-04-01T06:01:15.828Z,9.51
2023-04-01T06:04:21.093Z,9.39
2023-04-01T06:07:23.975Z,9.42
2023-04-01T06:10:44.844Z,9.47
2023-04-01T06:14:01.716Z,9.48
2023-04-01T06:17:26.229Z,9.60
2023-04-01T06:20:32.194Z,9.61
2023-04-01T06:23:51.067Z,9.66
2023-04-01T06:27:09.297Z,9.69
2023-04-01T06:30:34.447Z,9.62
2023-04-01T06:33:43.657Z,9.60
2023-04-01T06:36:55.646Z,9.61
2023-04-01T06:40:07.596Z,9.60
2023-04-01T06:43:30.777Z,9.61
2023-04-01T06:47:03.662Z,9.61
2023-04-01T06:50:42.547Z,9.64
2023-04-01T06:54:19.232Z,9.66
2023-04-01T06:57:48.736Z,9.65
2023-04-01T07:01:00.011Z,9.65
2023-04-01T07:04:11.478Z,9.80
2023-04-01T07:07:39.117Z,9.85
2023-04-01T07:10:54.725Z,9.90
2023-04-01T07:14:45.928Z,9.83
2023-04-01T07:17:54.802Z,9.85
2023-04-01T07:20:58.753Z,9.86
2023-04-01T07:24:07.958Z,9.91
2023-04-01T07:27:26.708Z,9.88
2023-04-01T07:30:44.196Z,9.89
2023-04-01T07:34:08.359Z,10.01
2023-04-01T07:37:46.778Z,10.22
2023-04-01T07:41:06.132Z,10.36
2023-04-01T07:44:28.495Z,10.45
2023-04-01T07:48:02.378Z,10.63
2023-04-01T07:51:14.978Z,10.68
2023-04-01T07:54:46.478Z,11.10
2023-04-01T07:58:01.472Z,11.17
2023-04-01T08:01:12.096Z,11.54
2023-04-01T08:04:50.266Z,11.57
2023-04-01T08:08:14.563Z,11.81
2023-04-01T08:11:59.320Z,11.63
2023-04-01T08:15:28.425Z,11.67
2023-04-01T08:18:51.057Z,11.44
2023-04-01T08:21:58.794Z,11.42
2023-04-01T08:25:05.344Z,11.29
2023-04-01T08:28:08.205Z,11.31
2023-04-01T08:31:17.356Z,11.28
2023-04-01T08:34:37.674Z,11.40
2023-04-01T08:37:42.426Z,11.42
2023-04-01T08:40:53.900Z,11.47
2023-04-01T08:44:23.035Z,11.51
2023-04-01T08:47:33.789Z,11.69
2023-04-01T08:50:56.015Z,11.80
2023-04-01T08:54:24.172Z,11.78
2023-04-01T08:57:52.084Z,11.75
2023-04-01T09:01:34.113Z,12.12
2023-04-01T09:04:49.589Z,12.25
2023-04-01T09:08:01.450Z,12.25
2023-04-01T09:11:22.762Z,12.35
2023-04-01T09:14:56.056Z,12.49
2023-04-01T09:18:37.607Z,12.39
2023-04-01T09:21:52.333Z,12.43
2023-04-01T09:25:29.853Z,12.78
2023-04-01T09:28:43.888Z,12.68
2023-04-01T09:31:58.895Z,12.99
2023-04-01T09:35:24.629Z,12.93
2023-04-01T09:38:38.859Z,12.73
2023-04-01T09:41:54.723Z,12.74
2023-04-01T09:45:46.675Z,12.53
2023-04-01T09:49:05.327Z,12.65
2023-04-01T09:52:49.686Z,12.52
2023-04-01T09:56:40.624Z,12.59
2023-04-01T10:00:11.891Z,13.04
2023-04-01T10:03:42.628Z,13.05
2023-04-01T10:06:59.762Z,12.99
2023-04-01T10:10:15.641Z,13.05
2023-04-01T10:13:31.440Z,12.94
2023-04-01T10:17:02.396Z,13.23
2023-04-01T10:20:29.687Z,13.27
2023-04-01T10:23:49.342Z,13.33
2023-04-01T10:27:19.368Z,13.27
2023-04-01T10:31:04.500Z,13.31
2023-04-01T10:34:49.976Z,13.16
2023-04-01T10:38:10.131Z,13.43
2023-04-01T10:41:54.466Z,13.29
2023-04-01T10:45:52.825Z,13.21
2023-04-01T10:49:33.869Z,13.47
2023-04-01T10:53:02.313Z,13.69
2023-04-01T10:56:51.661Z,13.75
2023-04-01T11:00:40.213Z,13.83
2023-04-01T11:04:39.389Z,14.00
2023-04-01T11:08:38.577Z,13.87
2023-04-01T11:12:08.245Z,13.71
2023-04-01T11:15:42.324Z,13.65
2023-04-01T11:18:49.656Z,13.56
2023-04-01T11:21:55.516Z,13.66
2023-04-01T11:25:34.476Z,13.58
2023-04-01T11:29:21.435Z,13.34
2023-04-01T11:32:49.340Z,13.60
2023-04-01T11:36:07.806Z,13.93
2023-04-01T11:39:31.482Z,14.01
2023-04-01T11:43:19.916Z,13.80
2023-04-01T11:47:31.426Z,13.99
2023-04-01T11:51:00.500Z,14.13
2023-04-01T11:54:42.449Z,13.86
2023-04-01T11:57:46.834Z,13.65
2023-04-01T12:00:52.636Z,13.84
2023-04-01T12:04:24.478Z,13.72
2023-04-01T12:08:03.243Z,13.60
2023-04-01T12:11:25.155Z,13.61
2023-04-01T12:14:37.669Z,13.85
2023-04-01T12:18:01.045Z,13.92
2023-04-01T12:21:12.700Z,13.95
2023-04-01T12:24:36.688Z,14.60
2023-04-01T12:27:56.192Z,14.69
2023-04-01T12:31:24.435Z,15.15
2023-04-01T12:35:19.491Z,15.30
2023-04-01T12:38:43.443Z,15.25
2023-04-01T12:42:23.757Z,15.13
2023-04-01T12:45:33.677Z,15.24
2023-04-01T12:49:18.640Z,15.58
2023-04-01T12:52:49.476Z,16.20
2023-04-01T12:55:53.958Z,16.09
2023-04-01T12:59:35.121Z,15.83
2023-04-01T13:03:06.331Z,16.34
2023-04-01T13:06:26.750Z,16.63
2023-04-01T13:10:08.059Z,16.93
2023-04-01T13:13:41.712Z,16.87
2023-04-01T13:16:55.517Z,16.68
2023-04-01T13:20:10.828Z,16.00
2023-04-01T13:23:22.709Z,15.85
2023-04-01T13:26:46.145Z,15.63
2023-04-01T13:30:21.379Z,15.32
2023-04-01T13:33:33.713Z,14.97
2023-04-01T13:36:46.208Z,15.19
2023-04-01T13:40:46.756Z,15.61
2023-04-01T13:44:10.769Z,16.96
2023-04-01T13:47:26.965Z,18.10
2023-04-01T13:50:59.735Z,17.92
2023-04-01T13:54:11.499Z,17.98
2023-04-01T13:57:36.308Z,17.33
2023-04-01T14:00:54.645Z,17.25
2023-04-01T14:04:31.728Z,16.06
2023-04-01T14:07:46.649Z,15.91
2023-04-01T14:11:20.407Z,15.58
2023-04-01T14:14:47.754Z,15.70
2023-04-01T14:18:17.431Z,15.63
2023-04-01T14:21:29.062Z,16.00
2023-04-01T14:24:54.318Z,15.76
2023-04-01T14:28:13.552Z,15.95
2023-04-01T14:31:28.603Z,16.10
2023-04-01T14:34:43.530Z,16.29
2023-04-01T14:38:27.405Z,16.12
2023-04-01T14:41:54.869Z,15.20
2023-04-01T14:45:04.165Z,14.40
2023-04-01T14:48:28.806Z,13.48
2023-04-01T14:51:38.726Z,13.03
2023-04-01T14:54:45.466Z,12.81
2023-04-01T14:58:22.972Z,12.64
2023-04-01T15:01:52.042Z,12.65
2023-04-01T15:05:36.765Z,12.67
2023-04-01T15:08:59.464Z,12.64
2023-04-01T15:12:02.357Z,12.40
2023-04-01T15:15:23.990Z,12.09
2023-04-01T15:18:42.411Z,11.63
2023-04-01T15:21:45.136Z,11.48
2023-04-01T15:24:54.007Z,11.37
2023-04-01T15:27:56.875Z,11.35
2023-04-01T15:31:59.186Z,11.09
2023-04-01T15:35:07.977Z,10.99
2023-04-01T15:38:35.484Z,10.82
2023-04-01T15:41:41.629Z,10.69
2023-04-01T15:45:02.329Z,10.64
2023-04-01T15:48:32.774Z,10.63
2023-04-01T15:51:51.007Z,10.61
2023-04-01T15:55:05.628Z,10.57
2023-04-01T15:58:32.164Z,10.50
2023-04-01T16:01:56.237Z,10.47
2023-04-01T16:05:34.705Z,10.41
2023-04-01T16:09:02.480Z,10.33
2023-04-01T16:12:17.815Z,10.31
2023-04-01T16:15:29.784Z,10.27
2023-04-01T16:18:49.985Z,10.27
2023-04-01T16:22:06.562Z,10.21
2023-04-01T16:25:37.731Z,10.18
2023-04-01T16:29:05.515Z,10.22
2023-04-01T16:32:47.098Z,10.25
2023-04-01T16:36:10.096Z,10.33
2023-04-01T16:39:42.046Z,10.31
2023-04-01T16:43:06.962Z,10.37
2023-04-01T16:46:34.230Z,10.41
2023-04-01T16:49:55.148Z,10.37
2023-04-01T16:53:01.965Z,10.38
2023-04-01T16:56:16.914Z,10.33
2023-04-01T16:59:39.846Z,10.35
2023-04-01T17:02:52.035Z,10.30
2023-04-01T17:06:07.504Z,10.27
2023-04-01T17:09:38.686Z,10.16
2023-04-01T17:13:02.933Z,10.06
2023-04-01T17:16:09.060Z,9.97
2023-04-01T17:19:59.311Z,9.92
2023-04-01T17:23:28.516Z,9.83
2023-04-01T17:27:03.238Z,9.65
2023-04-01T17:30:16.917Z,9.60
2023-04-01T17:33:26.036Z,9.49
2023-04-01T17:36:49.806Z,9.30
2023-04-01T17:40:06.100Z,9.23
2023-04-01T17:43:24.246Z,9.09
2023-04-01T17:47:02.684Z,8.94
2023-04-01T17:50:37.577Z,8.85
2023-04-01T17:53:59.025Z,8.78
2023-04-01T17:57:30.730Z,8.66
2023-04-01T18:00:53.818Z,8.69
2023-04-01T18:04:32.965Z,8.58
2023-04-01T18:07:54.088Z,8.50
2023-04-01T18:11:03.263Z,8.43
2023-04-01T18:14:28.077Z,8.38
2023-04-01T18:17:42.651Z,8.24
2023-04-01T18:20:59.169Z,8.11
2023-04-01T18:24:34.670Z,8.04
2023-04-01T18:28:23.647Z,7.99
2023-04-01T18:31:36.918Z,7.93
2023-04-01T18:34:45.758Z,7.84
2023-04-01T18:38:17.645Z,7.73
2023-04-01T18:41:24.272Z,7.57
2023-04-01T18:44:43.253Z,7.51
2023-04-01T18:48:10.179Z,7.51
2023-04-01T18:51:16.171Z,7.45
2023-04-01T18:54:31.737Z,7.45
2023-04-01T18:57:54.281Z,7.49
2023-04-01T19:01:06.259Z,7.50
2023-04-01T19:04:31.907Z,7.39
2023-04-01T19:07:37.796Z,7.18
2023-04-01T19:11:12.854Z,7.01
2023-04-01T19:14:30.538Z,7.01
2023-04-01T19:17:45.853Z,7.04
2023-04-01T19:20:58.486Z,7.04
2023-04-01T19:24:46.709Z,7.05
2023-04-01T19:28:17.597Z,7.05
2023-04-01T19:31:26.821Z,7.04
2023-04-01T19:34:58.569Z,7.04
2023-04-01T19:38:08.913Z,7.01
2023-04-01T19:41:11.944Z,6.90
2023-04-01T19:44:21.044Z,6.89
2023-04-01T19:47:51.679Z,6.81
2023-04-01T19:51:02.091Z,6.76
2023-04-01T19:54:14.256Z,6.79
2023-04-01T19:57:23.488Z,6.69
2023-04-01T20:00:36.189Z,6.75
2023-04-01T20:03:55.364Z,6.80
2023-04-01T20:07:05.654Z,6.79
2023-04-01T20:10:23.604Z,6.61
2023-04-01T20:13:33.532Z,6.43
2023-04-01T20:16:54.692Z,6.37
2023-04-01T20:20:09.946Z,6.28
2023-04-01T20:23:12.979Z,6.24
2023-04-01T20:26:31.448Z,6.18
2023-04-01T20:30:07.015Z,6.22
2023-04-01T20:33:46.914Z,6.18
2023-04-01T20:36:53.162Z,6.06
2023-04-01T20:40:36.459Z,6.04
2023-04-01T20:43:51.526Z,6.10
2023-04-01T20:47:08.515Z,6.03
2023-04-01T20:50:34.489Z,6.04
2023-04-01T20:53:45.164Z,5.98
2023-04-01T20:57:06.505Z,5.95
2023-04-01T21:00:31.489Z,5.91
2023-04-01T21:03:48.505Z,5.91
2023-04-01T21:07:32.716Z,5.84
2023-04-01T21:10:44.889Z,5.68
2023-04-01T21:14:12.859Z,5.62
2023-04-01T21:17:51.188Z,5.55
2023-04-01T21:21:21.657Z,5.59
2023-04-01T21:24:45.763Z,5.61
2023-04-01T21:28:03.855Z,5.60
2023-04-01T21:31:28.472Z,5.59
2023-04-01T21:34:44.709Z,5.52
2023-04-01T21:37:53.445Z,5.46
2023-04-01T21:41:19.752Z,5.37
2023-04-01T21:44:40.112Z,5.25
2023-04-01T21:48:01.841Z,5.26
2023-04-01T21:51:15.585Z,5.33
2023-04-01T21:54:40.052Z,5.27
2023-04-01T21:57:52.055Z,5.01
2023-04-01T22:01:32.354Z,4.82
2023-04-01T22:04:54.414Z,4.77
2023-04-01T22:08:01.524Z,4.76
2023-04-01T22:11:37.803Z,4.66
2023-04-01T22:14:43.066Z,4.58
2023-04-01T22:18:04.363Z,4.55
2023-04-01T22:21:17.686Z,4.54
2023-04-01T22:24:43.045Z,4.54
2023-04-01T22:28:04.566Z,4.58
2023-04-01T22:31:11.636Z,4.57
2023-04-01T22:34:25.861Z,4.62
2023-04-01T22:37:50.328Z,4.71
2023-04-01T22:40:59.116Z,4.87
2023-04-01T22:44:02.171Z,4.89
2023-04-01T22:47:40.383Z,5.03
2023-04-01T22:51:07.225Z,5.10
2023-04-01T22:54:28.944Z,5.06
2023-04-01T22:57:31.824Z,5.14
2023-04-01T23:00:41.999Z,5.11
2023-04-01T23:03:50.541Z,5.15
2023-04-01T23:06:59.120Z,5.14
2023-04-01T23:10:03.870Z,5.10
2023-04-01T23:13:11.785Z,5.11
2023-04-01T23:16:14.952Z,5.06
2023-04-01T23:19:39.469Z,4.97
2023-04-01T23:22:58.511Z,4.94
2023-04-01T23:26:27.536Z,5.05
2023-04-01T23:29:30.761Z,4.92
2023-04-01T23:32:33.581Z,4.81
2023-04-01T23:35:51.424Z,4.65
2023-04-01T23:38:55.399Z,4.53
2023-04-01T23:42:06.417Z,4.47
2023-04-01T23:45:18.612Z,4.40
2023-04-01T23:48:30.303Z,4.40
2023-04-01T23:51:50.205Z,4.40
2023-04-01T23:54:55.028Z,4.43
2023-04-01T23:58:06.992Z,4.37
